Time;durP1;ratioP1;P1;durP2;ratioP2;P2;SDS_P1;SDS_P2;PMS_P1;PMS_P2;Temp;Humidity;BMP_temperature;BMP_pressure;BME280_temperature;BME280_humidity;BME280_pressure;Samples;Min_cycle;Max_cycle;Signal;HPM_P1;HPM_P2
2021/01/25 00:01:22;;;;;;;2.38;1.67;;;-1.00;94.90;;;;;;5072574;28;20048;-69
2021/01/25 00:03:47;;;;;;;3.05;1.77;;;-1.10;94.90;;;;;;5074282;28;20033;-69
2021/01/25 00:06:14;;;;;;;2.45;1.70;;;-1.20;95.10;;;;;;5074515;28;20314;-68
2021/01/25 00:08:39;;;;;;;3.65;2.10;;;-1.30;95.40;;;;;;5074582;28;20033;-69
2021/01/25 00:11:05;;;;;;;3.97;2.22;;;-1.30;95.70;;;;;;5072654;28;20082;-69
2021/01/25 00:13:31;;;;;;;2.33;1.70;;;-1.30;95.80;;;;;;5074353;28;20059;-69
2021/01/25 00:15:57;;;;;;;3.10;1.80;;;-1.20;95.60;;;;;;5074951;28;20028;-68
2021/01/25 00:18:22;;;;;;;2.78;1.90;;;-1.10;95.40;;;;;;5077908;28;20028;-67
2021/01/25 00:20:48;;;;;;;2.80;1.90;;;-1.00;95.20;;;;;;5072777;28;20035;-67
2021/01/25 00:23:14;;;;;;;3.33;1.90;;;-1.00;94.80;;;;;;5074449;28;20086;-69
2021/01/25 00:25:42;;;;;;;3.42;2.00;;;-0.90;94.80;;;;;;5071767;28;20028;-68
2021/01/25 00:28:08;;;;;;;3.63;1.98;;;-0.90;94.60;;;;;;5074409;28;20044;-69
2021/01/25 00:30:34;;;;;;;4.25;2.03;;;-0.80;94.60;;;;;;5073166;28;20052;-69
2021/01/25 00:33:00;;;;;;;3.10;1.80;;;-0.80;94.70;;;;;;5073766;28;20021;-67
2021/01/25 00:35:25;;;;;;;4.55;2.00;;;-0.80;94.70;;;;;;5072806;28;20032;-68
2021/01/25 00:37:51;;;;;;;2.88;1.80;;;-0.80;94.70;;;;;;5084665;28;20076;-68
2021/01/25 00:40:17;;;;;;;3.33;1.75;;;-0.70;94.50;;;;;;5068269;28;20418;-68
2021/01/25 00:42:43;;;;;;;4.05;1.90;;;-0.60;94.20;;;;;;5060406;28;20457;-69
2021/01/25 00:45:09;;;;;;;3.60;2.17;;;-0.60;93.60;;;;;;5060335;28;20106;-68
2021/01/25 00:47:35;;;;;;;3.10;1.88;;;-0.60;93.50;;;;;;5071295;28;20350;-69
2021/01/25 00:50:02;;;;;;;4.32;1.80;;;-0.60;93.70;;;;;;5068069;28;20028;-67
2021/01/25 00:52:27;;;;;;;4.40;1.90;;;-0.60;93.70;;;;;;5071638;28;20074;-69
2021/01/25 00:54:55;;;;;;;3.35;1.95;;;-0.60;93.90;;;;;;5065174;28;20100;-68
2021/01/25 00:57:21;;;;;;;7.60;2.35;;;-0.60;93.70;;;;;;5061177;28;20029;-68
2021/01/25 00:59:47;;;;;;;4.00;2.15;;;-0.60;93.70;;;;;;5081483;28;20110;-68
2021/01/25 01:02:12;;;;;;;3.08;1.95;;;-0.50;93.50;;;;;;5082489;28;20036;-68
2021/01/25 01:04:38;;;;;;;3.67;2.05;;;-0.50;93.40;;;;;;5074634;28;20032;-67
2021/01/25 01:07:04;;;;;;;3.45;1.90;;;-0.60;93.70;;;;;;5074950;28;20021;-67
2021/01/25 01:09:32;;;;;;;3.92;2.22;;;-0.60;93.90;;;;;;5071848;28;20086;-68
2021/01/25 01:11:58;;;;;;;3.53;1.90;;;-0.60;94.10;;;;;;5079750;28;20425;-69
2021/01/25 01:14:24;;;;;;;3.03;1.85;;;-0.60;94.00;;;;;;5077608;28;20089;-67
2021/01/25 01:16:50;;;;;;;4.32;2.10;;;-0.60;94.10;;;;;;5077910;28;20035;-67
2021/01/25 01:19:16;;;;;;;8.13;2.63;;;-0.60;94.10;;;;;;5074931;28;20063;-66
2021/01/25 01:21:44;;;;;;;3.60;2.00;;;-0.60;94.20;;;;;;5078351;28;20056;-67
2021/01/25 01:24:15;;;;;;;4.03;2.38;;;-0.70;94.20;;;;;;5075227;28;20020;-69
2021/01/25 01:26:41;;;;;;;4.68;2.05;;;-0.70;94.00;;;;;;5077330;28;20024;-68
2021/01/25 01:29:07;;;;;;;3.92;2.20;;;-0.60;93.80;;;;;;5076275;28;20338;-67
2021/01/25 01:31:36;;;;;;;3.70;1.98;;;-0.60;93.90;;;;;;5083060;28;20032;-68
2021/01/25 01:34:02;;;;;;;3.97;2.20;;;-0.60;94.20;;;;;;5081007;28;20107;-68
2021/01/25 01:36:28;;;;;;;3.50;1.98;;;-0.60;94.10;;;;;;5076260;28;20032;-67
2021/01/25 01:38:56;;;;;;;3.88;2.45;;;-0.50;93.50;;;;;;5073606;28;20440;-68
2021/01/25 01:41:22;;;;;;;3.83;1.85;;;-0.50;93.70;;;;;;5076538;28;20035;-67
2021/01/25 01:43:48;;;;;;;4.22;2.35;;;-0.60;93.80;;;;;;5075225;28;20349;-67
2021/01/25 01:46:14;;;;;;;3.70;2.10;;;-0.60;94.00;;;;;;5061803;28;20025;-66
2021/01/25 01:48:42;;;;;;;3.33;2.20;;;-0.60;94.00;;;;;;5073787;28;20021;-67
2021/01/25 01:51:09;;;;;;;4.70;2.30;;;-0.60;94.20;;;;;;5078217;28;20357;-69
2021/01/25 01:53:34;;;;;;;4.00;2.30;;;-0.60;94.80;;;;;;5076602;28;20032;-69
2021/01/25 01:56:00;;;;;;;5.00;2.35;;;-0.60;94.30;;;;;;5075430;28;20016;-68
2021/01/25 01:58:30;;;;;;;3.63;2.40;;;-0.60;94.10;;;;;;5075921;28;20025;-69
2021/01/25 02:00:59;;;;;;;4.25;2.60;;;-0.40;93.80;;;;;;5074441;28;20044;-68
2021/01/25 02:03:25;;;;;;;4.60;2.53;;;-0.50;94.10;;;;;;5074519;28;20522;-69
2021/01/25 02:05:52;;;;;;;4.15;2.70;;;-0.50;94.30;;;;;;5076623;28;20104;-69
2021/01/25 02:08:21;;;;;;;4.82;2.90;;;-0.50;94.50;;;;;;5076039;28;20059;-68
2021/01/25 02:10:49;;;;;;;5.30;2.90;;;-0.50;94.40;;;;;;5074424;28;20028;-69
2021/01/25 02:13:15;;;;;;;5.05;2.97;;;-0.60;94.10;;;;;;5082003;28;20028;-69
2021/01/25 02:15:41;;;;;;;4.10;2.90;;;-0.60;94.50;;;;;;5076527;28;20028;-68
2021/01/25 02:18:06;;;;;;;4.93;3.03;;;-0.60;94.60;;;;;;5072810;28;20048;-68
2021/01/25 02:20:42;;;;;;;4.47;3.00;;;-0.60;94.00;;;;;;5074911;28;20023;-67
2021/01/25 02:23:38;;;;;;;5.43;3.25;;;-0.60;93.90;;;;;;5074925;28;20024;-67
2021/01/25 02:26:25;;;;;;;5.53;3.45;;;-0.60;94.00;;;;;;5066159;28;20024;-68
2021/01/25 02:28:51;;;;;;;7.50;4.50;;;-0.60;93.90;;;;;;5074082;28;20017;-67
2021/01/25 02:31:17;;;;;;;6.50;3.95;;;-0.60;94.20;;;;;;5077319;28;20456;-69
2021/01/25 02:33:49;;;;;;;7.90;3.75;;;-0.70;94.10;;;;;;5075530;28;20024;-67
2021/01/25 02:36:15;;;;;;;5.55;3.20;;;-0.70;94.80;;;;;;5075777;28;20030;-69
2021/01/25 02:38:47;;;;;;;6.78;3.78;;;-0.70;95.10;;;;;;5074821;28;20596;-67
2021/01/25 02:41:14;;;;;;;5.72;3.58;;;-0.80;95.40;;;;;;5074153;28;20032;-68
2021/01/25 02:43:41;;;;;;;6.25;3.90;;;-0.80;96.00;;;;;;5075876;28;20024;-67
2021/01/25 02:46:09;;;;;;;6.40;4.10;;;-0.80;96.50;;;;;;5075678;28;20295;-68
2021/01/25 02:48:37;;;;;;;5.95;4.00;;;-0.80;97.20;;;;;;5074724;28;20027;-66
2021/01/25 02:51:04;;;;;;;4.72;3.33;;;-0.80;97.60;;;;;;5079305;28;20030;-67
2021/01/25 02:53:30;;;;;;;5.72;3.85;;;-0.90;98.00;;;;;;5089544;28;20650;-66
2021/01/25 02:55:57;;;;;;;6.43;3.50;;;-0.90;98.00;;;;;;5074538;28;20032;-66
2021/01/25 02:58:24;;;;;;;4.88;3.15;;;-0.90;98.00;;;;;;5071461;28;20333;-66
2021/01/25 03:00:50;;;;;;;6.93;3.90;;;-1.00;98.00;;;;;;5074841;28;20037;-67
2021/01/25 03:03:19;;;;;;;5.93;3.80;;;-1.00;98.00;;;;;;5075385;28;20104;-67
2021/01/25 03:05:46;;;;;;;6.15;3.75;;;-1.10;98.00;;;;;;5075519;28;20017;-67
2021/01/25 03:08:12;;;;;;;6.70;3.28;;;-1.10;98.00;;;;;;5061031;28;20025;-67
2021/01/25 03:10:38;;;;;;;5.28;3.38;;;-1.10;98.00;;;;;;5073685;28;20021;-66
2021/01/25 03:13:05;;;;;;;4.80;3.10;;;-1.10;98.00;;;;;;5075245;28;20043;-67
2021/01/25 03:15:35;;;;;;;4.43;2.97;;;-1.10;98.00;;;;;;5075605;28;20059;-67
2021/01/25 03:18:04;;;;;;;4.65;2.85;;;-1.00;98.00;;;;;;5074449;28;20029;-66
2021/01/25 03:20:31;;;;;;;6.55;2.80;;;-1.10;98.00;;;;;;5075499;28;20422;-66
2021/01/25 03:22:56;;;;;;;5.55;2.95;;;-1.10;98.00;;;;;;5073267;28;20024;-66
2021/01/25 03:25:23;;;;;;;4.28;2.40;;;-1.00;98.00;;;;;;5073505;28;20457;-65
2021/01/25 03:27:48;;;;;;;4.70;2.70;;;-1.00;98.00;;;;;;5074096;28;20020;-67
2021/01/25 03:30:15;;;;;;;3.75;2.35;;;-1.00;98.00;;;;;;5075178;28;20032;-67
2021/01/25 03:32:42;;;;;;;4.07;2.50;;;-1.00;98.00;;;;;;5075212;28;20028;-66
2021/01/25 03:35:09;;;;;;;4.25;2.42;;;-1.00;98.00;;;;;;5074772;28;20491;-67
2021/01/25 03:37:36;;;;;;;5.57;2.47;;;-1.00;98.00;;;;;;5075062;28;20024;-67
2021/01/25 03:40:04;;;;;;;3.28;2.08;;;-1.00;98.00;;;;;;5073113;28;20039;-67
2021/01/25 03:42:29;;;;;;;4.25;2.30;;;-1.00;98.00;;;;;;5074390;28;20082;-67
2021/01/25 03:44:55;;;;;;;3.58;2.28;;;-1.10;98.00;;;;;;5074731;28;20024;-66
2021/01/25 03:47:20;;;;;;;4.03;2.15;;;-1.00;98.00;;;;;;5073933;28;20422;-66
2021/01/25 03:49:46;;;;;;;3.55;2.33;;;-1.00;98.00;;;;;;5076105;28;20024;-66
2021/01/25 03:52:11;;;;;;;3.97;2.10;;;-1.00;98.00;;;;;;5074849;28;20067;-67
2021/01/25 03:54:37;;;;;;;3.60;2.05;;;-1.10;98.00;;;;;;5073252;28;20028;-66
2021/01/25 03:57:06;;;;;;;3.92;2.20;;;-1.00;98.00;;;;;;5073835;28;20031;-66
2021/01/25 03:59:32;;;;;;;3.58;2.20;;;-1.00;98.00;;;;;;5074372;28;20025;-67
2021/01/25 04:01:57;;;;;;;3.25;2.08;;;-1.10;98.00;;;;;;5074937;28;20098;-68
2021/01/25 04:04:23;;;;;;;3.58;2.40;;;-1.10;98.00;;;;;;5074705;28;20035;-66
2021/01/25 04:06:49;;;;;;;3.95;1.77;;;-1.10;98.00;;;;;;5073639;28;20024;-67
2021/01/25 04:09:15;;;;;;;4.20;2.25;;;-1.00;98.00;;;;;;5072086;28;20066;-67
2021/01/25 04:11:43;;;;;;;3.30;2.20;;;-1.00;98.00;;;;;;5073611;28;20032;-66
2021/01/25 04:14:12;;;;;;;4.85;2.50;;;-1.10;98.00;;;;;;5074426;28;20032;-68
2021/01/25 04:16:38;;;;;;;3.38;2.00;;;-1.00;98.00;;;;;;5074550;28;20040;-67
2021/01/25 04:19:05;;;;;;;4.22;2.42;;;-1.00;98.00;;;;;;5075809;28;20326;-67
2021/01/25 04:21:30;;;;;;;4.65;2.33;;;-1.00;98.00;;;;;;5072138;28;20059;-67
2021/01/25 04:23:56;;;;;;;3.22;2.03;;;-1.00;98.00;;;;;;5072306;28;20028;-67
2021/01/25 04:26:22;;;;;;;5.22;2.45;;;-1.00;98.00;;;;;;5074544;28;20020;-67
2021/01/25 04:28:47;;;;;;;3.13;2.08;;;-0.90;98.00;;;;;;5073261;28;20039;-66
2021/01/25 04:31:13;;;;;;;4.38;2.42;;;-0.90;98.00;;;;;;5074603;28;20079;-67
2021/01/25 04:33:41;;;;;;;4.35;2.70;;;-0.90;98.00;;;;;;5073677;28;20021;-66
2021/01/25 04:36:07;;;;;;;3.95;2.42;;;-1.00;98.00;;;;;;5073079;28;20031;-68
2021/01/25 04:38:32;;;;;;;3.67;2.30;;;-1.10;98.00;;;;;;5071126;28;20171;-66
2021/01/25 04:40:58;;;;;;;3.75;2.35;;;-1.10;98.00;;;;;;5070758;28;20043;-67
2021/01/25 04:43:25;;;;;;;3.72;2.20;;;-1.10;98.00;;;;;;5074109;28;20066;-66
2021/01/25 04:45:53;;;;;;;3.00;2.00;;;-1.10;98.00;;;;;;5072150;28;20294;-68
2021/01/25 04:48:19;;;;;;;3.58;2.42;;;-1.10;98.00;;;;;;5076145;28;20367;-69
2021/01/25 04:50:47;;;;;;;3.78;2.10;;;-1.20;98.00;;;;;;5076711;28;20066;-68
2021/01/25 04:53:14;;;;;;;5.05;2.58;;;-1.20;98.00;;;;;;5069269;28;20025;-68
2021/01/25 04:55:41;;;;;;;5.55;2.70;;;-1.10;98.00;;;;;;5075912;28;20498;-68
2021/01/25 04:58:07;;;;;;;25.30;11.82;;;-1.10;98.00;;;;;;5077035;28;20035;-68
2021/01/25 05:00:32;;;;;;;10.20;4.80;;;-1.10;98.00;;;;;;5077346;28;20445;-68
2021/01/25 05:02:59;;;;;;;4.82;3.10;;;-0.90;98.00;;;;;;5074704;28;20028;-68
2021/01/25 05:05:24;;;;;;;4.63;2.60;;;-0.90;98.00;;;;;;5076638;28;20448;-68
2021/01/25 05:07:50;;;;;;;7.60;4.03;;;-0.80;98.00;;;;;;5075511;28;20021;-68
2021/01/25 05:10:16;;;;;;;7.78;4.20;;;-0.70;98.00;;;;;;5075823;28;20024;-66
2021/01/25 05:12:49;;;;;;;12.05;3.97;;;-0.70;98.00;;;;;;5076046;28;20040;-68
2021/01/25 05:15:28;;;;;;;11.15;5.35;;;-0.60;98.00;;;;;;5078993;28;20036;-67
2021/01/25 05:17:55;;;;;;;10.02;4.78;;;-0.60;98.00;;;;;;5085333;28;20303;-68
2021/01/25 05:20:29;;;;;;;4.80;2.60;;;-0.60;98.00;;;;;;5076937;28;20031;-68
2021/01/25 05:23:11;;;;;;;11.65;3.38;;;-0.70;98.00;;;;;;5072690;28;20033;-68
2021/01/25 05:25:37;;;;;;;4.65;2.67;;;-0.70;98.00;;;;;;5075291;28;20036;-67
2021/01/25 05:28:07;;;;;;;7.03;3.55;;;-0.70;98.00;;;;;;5077063;28;20098;-67
2021/01/25 05:30:36;;;;;;;14.95;6.75;;;-0.70;98.00;;;;;;5074390;28;20027;-66
2021/01/25 05:33:02;;;;;;;16.40;5.75;;;-0.80;98.00;;;;;;5077402;28;20532;-66
2021/01/25 05:35:30;;;;;;;2.63;1.88;;;-0.80;98.00;;;;;;5077218;28;20131;-67
2021/01/25 05:37:58;;;;;;;3.95;2.22;;;-0.70;98.00;;;;;;5074946;28;20024;-67
2021/01/25 05:40:25;;;;;;;9.00;4.13;;;-0.70;98.00;;;;;;5066531;28;20108;-67
2021/01/25 05:42:55;;;;;;;7.82;3.78;;;-0.70;98.00;;;;;;5073356;28;20024;-68
2021/01/25 05:45:22;;;;;;;7.07;4.13;;;-0.70;98.00;;;;;;5064825;28;20036;-68
2021/01/25 05:47:54;;;;;;;5.38;3.20;;;-0.70;98.00;;;;;;5074237;28;20059;-67
2021/01/25 05:50:24;;;;;;;5.03;2.97;;;-0.70;98.00;;;;;;5073447;28;20414;-66
2021/01/25 05:52:51;;;;;;;8.88;4.93;;;-0.70;98.00;;;;;;5076650;28;20029;-67
2021/01/25 05:55:16;;;;;;;6.97;3.80;;;-0.70;98.00;;;;;;5075155;28;20039;-67
2021/01/25 05:57:42;;;;;;;8.65;4.88;;;-0.70;98.00;;;;;;5076375;28;20032;-67
2021/01/25 06:00:08;;;;;;;9.40;5.68;;;-0.60;98.00;;;;;;5075387;28;20093;-67
2021/01/25 06:02:36;;;;;;;12.55;6.55;;;-0.70;98.00;;;;;;5076340;28;20036;-67
2021/01/25 06:05:03;;;;;;;4.53;3.05;;;-0.70;98.00;;;;;;5075539;28;20325;-66
2021/01/25 06:07:29;;;;;;;6.18;3.47;;;-0.70;98.00;;;;;;5074911;28;20076;-69
2021/01/25 06:09:56;;;;;;;6.32;3.75;;;-0.60;98.00;;;;;;5085977;28;20444;-68
2021/01/25 06:12:32;;;;;;;5.18;3.17;;;-0.60;98.00;;;;;;5076039;28;20043;-67
2021/01/25 06:15:08;;;;;;;5.32;2.88;;;-0.60;98.00;;;;;;5073054;28;20062;-67
2021/01/25 06:17:35;;;;;;;7.05;4.07;;;-0.70;98.00;;;;;;5074608;28;20028;-66
2021/01/25 06:20:06;;;;;;;5.22;3.30;;;-0.60;98.00;;;;;;5075692;28;20059;-68
2021/01/25 06:22:33;;;;;;;6.50;4.13;;;-0.70;98.00;;;;;;5073821;28;20029;-67
2021/01/25 06:25:01;;;;;;;8.45;4.70;;;-0.70;98.00;;;;;;5074772;28;20108;-66
2021/01/25 06:27:26;;;;;;;17.67;6.78;;;-0.60;98.00;;;;;;5075509;28;20040;-66
2021/01/25 06:30:02;;;;;;;4.13;2.53;;;-0.60;98.00;;;;;;5084194;28;20029;-67
2021/01/25 06:32:32;;;;;;;5.32;3.10;;;-0.60;98.00;;;;;;5062559;28;20114;-68
2021/01/25 06:34:59;;;;;;;5.75;3.95;;;-0.60;98.00;;;;;;5063859;28;20463;-68
2021/01/25 06:37:28;;;;;;;5.88;3.72;;;-0.60;98.00;;;;;;5073172;28;20020;-68
2021/01/25 06:39:58;;;;;;;4.28;2.80;;;-0.60;98.00;;;;;;5093146;22;20053;-68
2021/01/25 06:42:31;;;;;;;6.43;3.88;;;-0.60;98.00;;;;;;5034031;28;20029;-69
2021/01/25 06:45:04;;;;;;;6.43;3.90;;;-0.60;98.00;;;;;;5032711;28;20021;-68
2021/01/25 06:47:34;;;;;;;4.63;2.90;;;-0.60;98.00;;;;;;5035012;28;20034;-68
2021/01/25 06:50:02;;;;;;;5.70;3.70;;;-0.60;98.00;;;;;;5029380;28;20395;-68
2021/01/25 06:52:30;;;;;;;5.18;3.33;;;-0.60;98.00;;;;;;5033331;28;20120;-67
2021/01/25 06:55:05;;;;;;;6.53;4.20;;;-0.60;98.00;;;;;;5031940;28;20433;-69
2021/01/25 06:57:34;;;;;;;5.90;3.80;;;-0.60;98.00;;;;;;5034130;28;20036;-68
2021/01/25 07:00:06;;;;;;;4.68;3.10;;;-0.50;98.00;;;;;;5040234;28;20044;-68
2021/01/25 07:02:32;;;;;;;6.32;3.47;;;-0.60;98.00;;;;;;5030689;28;20036;-68
2021/01/25 07:04:58;;;;;;;4.97;3.40;;;-0.60;98.00;;;;;;5032084;28;20018;-68
2021/01/25 07:07:29;;;;;;;5.35;3.55;;;-0.60;98.00;;;;;;5033342;28;20034;-70
2021/01/25 07:09:57;;;;;;;6.38;2.67;;;-0.60;98.00;;;;;;5029448;28;20026;-70
2021/01/25 07:12:24;;;;;;;5.30;3.30;;;-0.50;98.00;;;;;;5033834;28;20022;-70
2021/01/25 07:14:51;;;;;;;3.28;2.22;;;-0.50;98.00;;;;;;5030574;28;20017;-69
2021/01/25 07:17:17;;;;;;;2.90;1.98;;;-0.50;98.00;;;;;;5031033;28;20375;-69
2021/01/25 07:19:44;;;;;;;3.50;1.98;;;-0.40;98.00;;;;;;5033130;28;20541;-67
2021/01/25 07:22:10;;;;;;;4.80;2.83;;;-0.40;98.00;;;;;;5033742;28;20032;-69
2021/01/25 07:24:38;;;;;;;9.20;3.50;;;-0.30;98.00;;;;;;5031329;28;20134;-68
2021/01/25 07:27:05;;;;;;;5.35;3.13;;;-0.30;98.00;;;;;;5032826;28;20038;-68
2021/01/25 07:29:31;;;;;;;3.63;2.10;;;-0.20;98.00;;;;;;5031343;28;20029;-69
2021/01/25 07:31:58;;;;;;;4.97;2.58;;;-0.20;98.00;;;;;;5028534;28;20029;-68
2021/01/25 07:34:24;;;;;;;3.88;2.13;;;-0.20;98.00;;;;;;5028963;28;20029;-68
2021/01/25 07:36:50;;;;;;;4.25;2.22;;;-0.20;98.00;;;;;;5033743;28;20434;-67
2021/01/25 07:39:17;;;;;;;4.40;2.70;;;-0.10;98.00;;;;;;5026231;28;20083;-68
2021/01/25 07:41:44;;;;;;;4.85;2.75;;;-0.10;98.00;;;;;;5027604;28;20033;-68
2021/01/25 07:44:11;;;;;;;7.40;4.20;;;-0.10;98.00;;;;;;5023410;28;20041;-68
2021/01/25 07:46:37;;;;;;;6.28;3.97;;;0.00;98.00;;;;;;5033691;28;20440;-68
2021/01/25 07:49:03;;;;;;;4.75;2.60;;;0.00;98.00;;;;;;5032382;28;20374;-67
2021/01/25 07:51:35;;;;;;;4.18;2.50;;;0.00;98.00;;;;;;5033903;28;20111;-69
2021/01/25 07:54:02;;;;;;;7.95;4.45;;;0.10;98.00;;;;;;5030764;28;20137;-67
2021/01/25 07:56:28;;;;;;;5.70;3.42;;;0.10;98.00;;;;;;5025146;28;20036;-67
2021/01/25 07:59:14;;;;;;;8.00;4.43;;;0.10;98.00;;;;;;5028055;28;20029;-67
2021/01/25 08:01:51;;;;;;;9.98;4.93;;;0.20;98.00;;;;;;5027093;28;20021;-67
2021/01/25 08:04:21;;;;;;;9.30;4.38;;;0.20;98.00;;;;;;5034300;28;20426;-68
2021/01/25 08:06:52;;;;;;;6.78;3.58;;;0.40;98.00;;;;;;5025058;28;20025;-67
2021/01/25 08:09:20;;;;;;;5.43;3.47;;;0.50;98.00;;;;;;5023172;28;20334;-67
2021/01/25 08:11:46;;;;;;;7.72;3.67;;;0.50;98.00;;;;;;5028400;28;20034;-68
2021/01/25 08:14:26;;;;;;;7.15;4.57;;;0.60;98.00;;;;;;5034092;28;20021;-66
2021/01/25 08:17:04;;;;;;;8.05;4.70;;;0.70;98.00;;;;;;5032580;28;20033;-67
2021/01/25 08:19:41;;;;;;;10.05;6.70;;;0.50;98.00;;;;;;5033645;28;20026;-66
2021/01/25 08:22:18;;;;;;;7.10;4.65;;;0.50;98.00;;;;;;5035133;28;20036;-68
2021/01/25 08:24:59;;;;;;;4.95;2.72;;;0.50;98.00;;;;;;5036032;28;20084;-68
2021/01/25 08:27:25;;;;;;;5.65;3.88;;;0.60;98.00;;;;;;5038984;28;20101;-68
2021/01/25 08:30:05;;;;;;;7.03;3.90;;;0.60;98.00;;;;;;5035222;28;20314;-67
2021/01/25 08:32:41;;;;;;;5.03;2.85;;;0.60;98.00;;;;;;5035882;28;20148;-68
2021/01/25 08:35:09;;;;;;;7.68;3.70;;;0.70;98.00;;;;;;5037081;28;20689;-67
2021/01/25 08:37:36;;;;;;;4.43;2.72;;;0.80;98.00;;;;;;5036639;28;20037;-67
2021/01/25 08:40:16;;;;;;;4.65;2.60;;;0.70;98.00;;;;;;5036599;28;20046;-68
2021/01/25 08:42:42;;;;;;;5.22;2.60;;;0.90;98.00;;;;;;5036481;28;20116;-67
2021/01/25 08:45:14;;;;;;;4.75;2.88;;;0.90;98.00;;;;;;5033190;28;20558;-66
2021/01/25 08:47:40;;;;;;;6.53;3.78;;;0.90;98.00;;;;;;5038721;28;20025;-68
2021/01/25 08:50:26;;;;;;;9.32;3.20;;;0.90;98.00;;;;;;5036567;28;20032;-67
2021/01/25 08:53:16;;;;;;;5.35;3.20;;;0.80;98.00;;;;;;5033832;28;20029;-67
2021/01/25 08:55:52;;;;;;;8.68;5.32;;;0.80;98.00;;;;;;5035510;28;20422;-69
2021/01/25 08:58:32;;;;;;;6.15;3.08;;;0.70;98.00;;;;;;5027212;28;20041;-67
2021/01/25 09:00:58;;;;;;;5.63;3.35;;;0.70;98.00;;;;;;5037319;28;20025;-68
2021/01/25 09:03:25;;;;;;;3.72;2.70;;;0.60;98.00;;;;;;5035287;28;20506;-67
2021/01/25 09:05:52;;;;;;;4.55;3.00;;;0.60;98.00;;;;;;5037922;28;20025;-68
2021/01/25 09:08:18;;;;;;;5.30;3.42;;;0.60;98.00;;;;;;5035684;28;20052;-67
2021/01/25 09:10:44;;;;;;;6.90;4.00;;;0.60;98.00;;;;;;5036166;28;20109;-67
2021/01/25 09:13:10;;;;;;;7.13;4.68;;;0.70;98.00;;;;;;5035318;28;20053;-68
2021/01/25 09:15:35;;;;;;;7.60;5.68;;;0.70;98.00;;;;;;5035075;28;20056;-68
2021/01/25 09:18:01;;;;;;;12.02;7.05;;;0.90;98.00;;;;;;5036971;28;20411;-68
2021/01/25 09:20:27;;;;;;;5.85;3.70;;;0.90;98.00;;;;;;5033202;28;20044;-67
2021/01/25 09:22:52;;;;;;;5.93;4.03;;;1.00;98.00;;;;;;5037800;28;20096;-67
2021/01/25 09:25:21;;;;;;;6.47;3.42;;;1.20;98.00;;;;;;5034176;28;20032;-66
2021/01/25 09:27:50;;;;;;;6.55;4.82;;;1.30;98.00;;;;;;5036656;28;20084;-66
2021/01/25 09:30:17;;;;;;;4.53;3.30;;;1.40;98.00;;;;;;5035646;28;20022;-66
2021/01/25 09:32:43;;;;;;;6.10;3.15;;;1.20;98.00;;;;;;5036221;28;20071;-68
2021/01/25 09:35:12;;;;;;;5.80;3.63;;;1.30;98.00;;;;;;5045204;28;20414;-67
2021/01/25 09:37:38;;;;;;;4.40;2.90;;;1.30;98.00;;;;;;5045380;28;20048;-68
2021/01/25 09:40:05;;;;;;;5.68;3.53;;;1.40;98.00;;;;;;5035174;28;20049;-67
2021/01/25 09:42:31;;;;;;;4.88;2.90;;;1.30;98.00;;;;;;5038110;28;20039;-68
2021/01/25 09:44:57;;;;;;;7.13;4.05;;;1.10;98.00;;;;;;5036625;28;20022;-68
2021/01/25 09:47:23;;;;;;;5.10;2.92;;;0.90;98.00;;;;;;5034846;28;20032;-68
2021/01/25 09:49:48;;;;;;;7.03;3.63;;;0.90;98.00;;;;;;5034812;28;20045;-68
2021/01/25 09:52:14;;;;;;;4.47;2.63;;;0.90;98.00;;;;;;5029887;28;20136;-68
2021/01/25 09:54:40;;;;;;;5.15;3.35;;;0.80;98.00;;;;;;5035068;28;20035;-68
2021/01/25 09:57:06;;;;;;;4.85;3.08;;;0.70;98.00;;;;;;5035975;28;20648;-68
2021/01/25 09:59:32;;;;;;;4.80;2.53;;;0.60;98.00;;;;;;5038040;28;20082;-68
2021/01/25 10:01:58;;;;;;;4.63;2.63;;;0.60;98.00;;;;;;5035474;28;20132;-68
2021/01/25 10:04:25;;;;;;;4.25;2.58;;;0.50;98.00;;;;;;5036106;28;20057;-68
2021/01/25 10:06:51;;;;;;;6.85;3.28;;;0.50;98.00;;;;;;5028724;28;20025;-66
2021/01/25 10:09:17;;;;;;;6.97;2.92;;;0.40;98.00;;;;;;5032883;28;20354;-67
2021/01/25 10:11:43;;;;;;;5.18;2.78;;;0.40;98.00;;;;;;5036801;28;20095;-67
2021/01/25 10:14:09;;;;;;;4.95;3.30;;;0.50;98.00;;;;;;5016628;28;20025;-68
2021/01/25 10:16:35;;;;;;;5.40;3.38;;;0.40;98.00;;;;;;5036384;28;20060;-68
2021/01/25 10:19:00;;;;;;;8.98;3.45;;;0.40;98.00;;;;;;5048299;28;20103;-68
2021/01/25 10:21:26;;;;;;;5.18;2.95;;;0.40;98.00;;;;;;5040731;28;20119;-67
2021/01/25 10:23:51;;;;;;;4.95;3.53;;;0.50;98.00;;;;;;5032025;28;20022;-69
2021/01/25 10:26:20;;;;;;;5.35;3.78;;;0.50;98.00;;;;;;5038426;28;20025;-68
2021/01/25 10:28:47;;;;;;;4.05;2.78;;;0.70;98.00;;;;;;5034243;28;20024;-68
2021/01/25 10:31:13;;;;;;;7.38;4.93;;;0.80;98.00;;;;;;5031913;28;20116;-67
2021/01/25 10:33:39;;;;;;;4.20;2.97;;;0.90;98.00;;;;;;5030015;28;20430;-67
2021/01/25 10:36:05;;;;;;;7.20;4.00;;;1.10;98.00;;;;;;5022816;28;20032;-68
2021/01/25 10:38:31;;;;;;;3.95;2.50;;;1.20;98.00;;;;;;5030708;28;20087;-69
2021/01/25 10:40:57;;;;;;;15.35;7.50;;;1.20;98.00;;;;;;5027218;28;20127;-69
2021/01/25 10:43:22;;;;;;;4.70;3.03;;;1.20;98.00;;;;;;5035409;28;20098;-67
2021/01/25 10:45:48;;;;;;;7.00;3.10;;;1.20;98.00;;;;;;5033758;28;20308;-68
2021/01/25 10:48:14;;;;;;;7.90;4.40;;;1.20;98.00;;;;;;5036422;28;20322;-65
2021/01/25 10:50:40;;;;;;;4.70;2.90;;;1.10;98.00;;;;;;5033205;28;20456;-67
2021/01/25 10:53:05;;;;;;;4.50;2.63;;;1.10;98.00;;;;;;5034822;28;20100;-68
2021/01/25 10:55:31;;;;;;;5.78;3.45;;;1.20;98.00;;;;;;5033967;28;20121;-68
2021/01/25 10:57:57;;;;;;;3.05;1.90;;;1.20;98.00;;;;;;5033171;28;20036;-70
2021/01/25 11:00:24;;;;;;;7.07;2.10;;;1.40;98.00;;;;;;5034641;28;20426;-70
2021/01/25 11:02:51;;;;;;;3.17;2.13;;;1.50;98.00;;;;;;5034732;28;20096;-69
2021/01/25 11:05:21;;;;;;;4.18;2.17;;;1.30;98.00;;;;;;5035132;28;20079;-68
2021/01/25 11:07:48;;;;;;;2.78;1.63;;;1.20;98.00;;;;;;5034430;28;20025;-68
2021/01/25 11:10:19;;;;;;;4.22;2.42;;;1.10;98.00;;;;;;5034252;28;20033;-68
2021/01/25 11:12:45;;;;;;;2.33;1.50;;;1.10;98.00;;;;;;5033607;28;20037;-67
2021/01/25 11:15:11;;;;;;;4.15;2.75;;;0.90;98.00;;;;;;5035471;28;20037;-67
2021/01/25 11:17:37;;;;;;;5.40;3.63;;;1.00;98.00;;;;;;5036029;28;20028;-68
2021/01/25 11:20:04;;;;;;;4.80;3.38;;;1.30;98.00;;;;;;5034026;28;20030;-67
2021/01/25 11:22:30;;;;;;;3.25;2.22;;;1.70;98.00;;;;;;5033515;28;20104;-69
2021/01/25 11:24:55;;;;;;;3.40;2.17;;;2.00;96.90;;;;;;5030958;28;20451;-69
2021/01/25 11:27:21;;;;;;;6.22;2.78;;;2.40;96.70;;;;;;5035719;28;20057;-69
2021/01/25 11:29:47;;;;;;;3.80;2.10;;;2.50;95.80;;;;;;5035343;28;20100;-68
2021/01/25 11:32:14;;;;;;;4.63;1.92;;;2.60;94.10;;;;;;5035267;28;20034;-69
2021/01/25 11:34:40;;;;;;;3.95;2.00;;;2.50;94.60;;;;;;5020066;28;20314;-69
2021/01/25 11:37:05;;;;;;;5.15;2.83;;;2.60;94.40;;;;;;5032714;28;20300;-67
2021/01/25 11:39:32;;;;;;;15.77;7.47;;;2.50;94.50;;;;;;5033514;28;20049;-68
2021/01/25 11:41:58;;;;;;;7.68;4.40;;;2.60;95.10;;;;;;5036641;28;20031;-70
2021/01/25 11:44:24;;;;;;;4.47;2.53;;;2.60;94.90;;;;;;5034092;28;20104;-69
2021/01/25 11:46:50;;;;;;;4.53;2.65;;;2.60;94.40;;;;;;5029079;28;20418;-69
2021/01/25 11:49:17;;;;;;;5.32;3.45;;;2.30;94.20;;;;;;5033370;28;20029;-68
2021/01/25 11:51:44;;;;;;;6.13;3.42;;;2.00;94.20;;;;;;5039075;28;20025;-69
2021/01/25 11:54:10;;;;;;;5.15;2.80;;;1.90;95.60;;;;;;5041741;28;20025;-67
2021/01/25 11:56:36;;;;;;;3.33;1.90;;;2.00;95.40;;;;;;5034359;28;20061;-67
2021/01/25 11:59:02;;;;;;;48.05;29.10;;;1.80;95.30;;;;;;5034524;28;20531;-67
2021/01/25 12:01:28;;;;;;;13.00;9.32;;;1.70;95.90;;;;;;5034936;28;20041;-67
2021/01/25 12:03:54;;;;;;;6.72;3.63;;;1.80;95.90;;;;;;5033948;28;20026;-69
2021/01/25 12:06:19;;;;;;;8.45;6.38;;;1.90;95.90;;;;;;5033412;28;20030;-69
2021/01/25 12:08:45;;;;;;;9.05;3.45;;;1.90;95.70;;;;;;5034415;28;20025;-69
2021/01/25 12:11:11;;;;;;;6.32;3.47;;;1.90;95.30;;;;;;5033952;28;20044;-68
2021/01/25 12:13:38;;;;;;;4.63;2.88;;;1.80;95.70;;;;;;5033287;28;20105;-68
2021/01/25 12:16:05;;;;;;;6.28;3.72;;;1.70;95.80;;;;;;5037056;28;20321;-68
2021/01/25 12:18:31;;;;;;;5.80;3.35;;;1.50;96.00;;;;;;5032856;28;20319;-67
2021/01/25 12:20:57;;;;;;;5.93;3.97;;;1.50;96.00;;;;;;5035074;28;20051;-67
2021/01/25 12:23:23;;;;;;;4.55;2.70;;;1.60;96.20;;;;;;5033507;28;20029;-68
2021/01/25 12:25:49;;;;;;;4.38;2.15;;;1.80;96.00;;;;;;5032962;28;20184;-66
2021/01/25 12:28:15;;;;;;;4.82;2.38;;;2.00;95.40;;;;;;5034399;28;20108;-67
2021/01/25 12:30:40;;;;;;;7.05;3.95;;;1.90;94.60;;;;;;5034748;28;20295;-68
2021/01/25 12:33:06;;;;;;;4.15;2.50;;;1.90;95.20;;;;;;5033506;28;20033;-68
2021/01/25 12:35:32;;;;;;;4.50;2.55;;;1.80;95.20;;;;;;5028941;28;20032;-68
2021/01/25 12:37:59;;;;;;;4.13;2.10;;;1.60;96.00;;;;;;5033544;28;20033;-71
2021/01/25 12:40:25;;;;;;;6.13;2.90;;;1.70;95.60;;;;;;5031892;28;20049;-69
2021/01/25 12:42:52;;;;;;;3.90;2.47;;;1.80;95.40;;;;;;5034055;28;20036;-67
2021/01/25 12:45:22;;;;;;;4.65;2.97;;;1.60;96.00;;;;;;5030076;28;20081;-69
2021/01/25 12:47:48;;;;;;;8.00;4.57;;;1.60;96.50;;;;;;5031108;28;20296;-69
2021/01/25 12:50:14;;;;;;;10.75;6.07;;;1.50;97.20;;;;;;5034387;28;20100;-69
2021/01/25 12:52:40;;;;;;;20.52;11.18;;;1.40;97.50;;;;;;5034340;28;20035;-69